Terminal Aerodrome Forecast
Issued by NWS Melbourne, FL

Home | Current Version | Previous Version | Text Only | Print | Product List | Glossary On
Versions: 1 2 3 4 5 6 7 8 9 10 11 12 13 14 15 16 17 18 19 20 21 22 23 24 25 26
634
FTUS42 KMLB 171552 AAA
TAFMCO
TAF AMD
KMCO 171552Z 1716/1812 24005KT P6SM SCT030
     FM171900 18008KT P6SM VCTS SCT040CB BKN100
      TEMPO 1720/1722 3SM TSRA BKN035CB
     FM180000 VRB04KT P6SM FEW035 SCT120 BKN250=

USA.gov is the U.S. government's official web portal to all federal, state and local government web resources and services.